createdAt,value
2019-04-22T00:00:08.977Z,3.20
2019-04-22T00:01:13.675Z,3.10
2019-04-22T00:02:11.820Z,3.50
2019-04-22T00:03:11.372Z,3.10
2019-04-22T00:04:14.223Z,3.30
2019-04-22T00:05:18.843Z,3.30
2019-04-22T00:06:32.811Z,3.10
2019-04-22T00:07:40.322Z,3.30
2019-04-22T00:08:36.281Z,3.60
2019-04-22T00:09:41.810Z,3.30
2019-04-22T00:10:44.282Z,3.20
2019-04-22T00:12:34.866Z,3.20
2019-04-22T00:13:39.137Z,2.70
2019-04-22T00:14:26.794Z,2.80
2019-04-22T00:15:27.757Z,3.10
2019-04-22T00:16:37.726Z,3.40
2019-04-22T00:17:38.630Z,3.40
2019-04-22T00:18:47.991Z,3.70
2019-04-22T00:19:35.994Z,3.10
2019-04-22T00:20:35.518Z,3.70
2019-04-22T00:21:55.188Z,3.40
2019-04-22T00:22:33.796Z,4.10
2019-04-22T00:23:30.721Z,4.60
2019-04-22T00:24:32.119Z,4.20
2019-04-22T00:25:34.430Z,4.20
2019-04-22T00:26:38.033Z,3.80
2019-04-22T00:28:36.851Z,3.00
2019-04-22T00:29:49.358Z,3.30
2019-04-22T00:30:28.119Z,3.20
2019-04-22T00:31:33.277Z,3.30
2019-04-22T00:32:30.522Z,3.30
2019-04-22T00:33:32.383Z,3.40
2019-04-22T00:34:32.478Z,3.90
2019-04-22T00:35:30.535Z,4.00
2019-04-22T00:36:40.435Z,3.30
2019-04-22T00:37:35.766Z,4.50
2019-04-22T00:38:38.288Z,4.00
2019-04-22T00:39:37.325Z,4.40
2019-04-22T00:40:35.375Z,4.30
2019-04-22T00:41:40.585Z,3.30
2019-04-22T00:42:34.751Z,4.30
2019-04-22T00:43:33.260Z,3.80
2019-04-22T00:44:51.591Z,3.90
2019-04-22T00:45:33.386Z,3.40
2019-04-22T00:46:44.451Z,3.30
2019-04-22T00:47:36.451Z,4.10
2019-04-22T00:48:38.052Z,3.80
2019-04-22T00:50:55.683Z,3.50
2019-04-22T00:51:33.665Z,4.00
2019-04-22T00:52:34.718Z,3.60
2019-04-22T00:53:37.474Z,4.20
2019-04-22T00:54:35.759Z,3.70
2019-04-22T00:55:32.588Z,4.10
2019-04-22T00:56:32.838Z,3.70
2019-04-22T00:57:36.915Z,3.90
2019-04-22T00:59:33.914Z,4.50
2019-04-22T01:00:31.299Z,4.40
2019-04-22T01:01:31.860Z,3.90
2019-04-22T01:02:34.693Z,3.60
2019-04-22T01:03:35.511Z,4.00
2019-04-22T01:05:38.754Z,4.30
2019-04-22T01:06:35.421Z,3.70
2019-04-22T01:07:30.469Z,3.90
2019-04-22T01:08:40.296Z,4.40
2019-04-22T01:09:40.158Z,4.50
2019-04-22T01:10:36.066Z,4.30
2019-04-22T01:11:33.461Z,4.00
2019-04-22T01:12:31.930Z,4.10
2019-04-22T01:13:30.462Z,3.80
2019-04-22T01:14:36.454Z,3.50
2019-04-22T01:15:34.343Z,3.50
2019-04-22T01:16:37.757Z,3.80
2019-04-22T01:17:34.439Z,3.90
2019-04-22T01:18:29.414Z,3.70
2019-04-22T01:19:38.662Z,4.30
2019-04-22T01:21:36.972Z,3.70
2019-04-22T01:22:26.714Z,3.70
2019-04-22T01:23:27.824Z,3.90
2019-04-22T01:24:27.822Z,3.60
2019-04-22T01:25:30.560Z,4.10
2019-04-22T01:26:24.230Z,3.40
2019-04-22T01:27:26.267Z,3.60
2019-04-22T01:28:23.837Z,3.90
2019-04-22T01:29:16.122Z,3.00
2019-04-22T01:30:21.152Z,3.30
2019-04-22T01:31:14.349Z,3.40
2019-04-22T01:32:16.030Z,2.90
2019-04-22T01:33:18.564Z,3.50
2019-04-22T01:34:23.257Z,3.30
2019-04-22T01:35:20.969Z,3.40
2019-04-22T01:36:30.145Z,3.50
2019-04-22T01:37:28.855Z,3.30
2019-04-22T01:39:37.518Z,3.40
2019-04-22T01:40:40.546Z,3.40
2019-04-22T01:41:42.038Z,3.30
2019-04-22T01:42:47.331Z,3.40
2019-04-22T01:43:50.380Z,3.40
2019-04-22T01:44:33.261Z,3.40
2019-04-22T01:45:33.074Z,3.60
2019-04-22T01:46:39.323Z,3.70
2019-04-22T01:47:36.438Z,3.30
2019-04-22T01:48:36.634Z,3.30
2019-04-22T01:49:34.340Z,3.40
2019-04-22T01:50:32.041Z,3.30
2019-04-22T01:51:45.289Z,3.50
2019-04-22T01:52:52.175Z,3.50
2019-04-22T01:53:33.684Z,3.30
2019-04-22T01:54:48.438Z,3.50
2019-04-22T01:55:36.928Z,3.10
2019-04-22T01:56:34.925Z,3.40
2019-04-22T01:57:28.747Z,3.40
2019-04-22T01:58:31.141Z,3.70
2019-04-22T01:59:30.158Z,3.30
2019-04-22T02:00:38.354Z,3.40
2019-04-22T02:01:37.127Z,3.40
2019-04-22T02:02:35.375Z,3.40
2019-04-22T02:03:43.012Z,3.30
2019-04-22T02:04:38.656Z,3.20
2019-04-22T02:05:29.001Z,3.30
2019-04-22T02:06:34.661Z,3.40
2019-04-22T02:07:36.529Z,3.60
2019-04-22T02:08:46.629Z,3.40
2019-04-22T02:09:38.131Z,3.30
2019-04-22T02:11:38.919Z,2.80
2019-04-22T02:12:32.786Z,3.40
2019-04-22T02:13:36.357Z,3.30
2019-04-22T02:15:32.914Z,3.40
2019-04-22T02:16:34.651Z,2.80
2019-04-22T02:17:38.277Z,3.20
2019-04-22T02:18:39.346Z,3.40
2019-04-22T02:19:53.387Z,3.20
2019-04-22T02:20:41.060Z,3.60
2019-04-22T02:21:38.584Z,3.10
2019-04-22T02:22:55.205Z,3.10
2019-04-22T02:24:39.741Z,2.90
2019-04-22T02:25:41.220Z,3.40
2019-04-22T02:26:35.459Z,3.40
2019-04-22T02:27:42.877Z,3.10
2019-04-22T02:29:34.433Z,3.30
2019-04-22T02:30:50.407Z,3.00
2019-04-22T02:31:45.382Z,3.20
2019-04-22T02:32:49.567Z,3.30
2019-04-22T02:34:49.724Z,3.80
2019-04-22T02:36:33.964Z,3.60
2019-04-22T02:38:04.724Z,4.00
2019-04-22T02:38:54.673Z,3.80
2019-04-22T02:40:56.013Z,4.30
2019-04-22T02:41:31.109Z,3.80
2019-04-22T02:42:32.408Z,4.00
2019-04-22T02:44:35.570Z,3.90
2019-04-22T02:45:50.703Z,3.70
2019-04-22T02:47:04.417Z,3.20
2019-04-22T02:47:36.144Z,4.20
2019-04-22T02:48:53.818Z,3.90
2019-04-22T02:49:59.766Z,4.00
2019-04-22T02:50:37.680Z,3.80
2019-04-22T02:51:32.784Z,3.90
2019-04-22T02:52:39.457Z,3.60
2019-04-22T02:54:17.810Z,3.80
2019-04-22T02:54:55.135Z,3.60
2019-04-22T02:55:46.248Z,3.90
2019-04-22T02:56:48.242Z,3.90
2019-04-22T02:57:47.375Z,3.90
2019-04-22T02:58:55.005Z,3.80
2019-04-22T02:59:39.801Z,4.00
2019-04-22T03:00:46.662Z,3.70
2019-04-22T03:02:07.190Z,3.70
2019-04-22T03:04:37.453Z,3.60
2019-04-22T03:05:47.141Z,3.90
2019-04-22T03:07:40.981Z,3.90
2019-04-22T03:08:43.341Z,3.40
2019-04-22T03:10:48.301Z,4.20
2019-04-22T03:12:33.458Z,4.20
2019-04-22T03:13:47.331Z,4.20
2019-04-22T03:14:48.406Z,3.90
2019-04-22T03:15:40.977Z,4.50
2019-04-22T03:16:37.716Z,4.30
2019-04-22T03:18:50.349Z,3.90
2019-04-22T03:19:50.464Z,3.90
2019-04-22T03:20:41.897Z,3.90
2019-04-22T03:22:39.036Z,3.90
2019-04-22T03:26:01.255Z,3.70
2019-04-22T03:27:35.348Z,3.70
2019-04-22T03:28:49.979Z,3.80
2019-04-22T03:29:48.591Z,4.30
2019-04-22T03:35:44.885Z,4.00
2019-04-22T03:37:49.215Z,4.20
2019-04-22T03:39:01.446Z,4.90
2019-04-22T03:42:03.553Z,4.60
2019-04-22T03:42:48.528Z,4.60
2019-04-22T03:43:56.132Z,4.30
2019-04-22T03:44:46.721Z,4.60
2019-04-22T03:46:30.373Z,4.20
2019-04-22T03:48:56.261Z,4.30
2019-04-22T03:49:50.004Z,4.50
2019-04-22T03:50:55.034Z,4.30
2019-04-22T03:51:45.785Z,4.60
2019-04-22T03:53:38.281Z,4.60
2019-04-22T03:55:41.820Z,4.30
2019-04-22T03:57:48.854Z,4.60
2019-04-22T03:58:36.791Z,4.40
2019-04-22T03:59:42.164Z,4.50
2019-04-22T04:01:46.216Z,4.20
2019-04-22T04:02:47.374Z,4.20
2019-04-22T04:03:46.296Z,5.00
2019-04-22T04:04:37.031Z,4.60
2019-04-22T04:05:49.977Z,4.40
2019-04-22T04:06:52.383Z,4.70
2019-04-22T04:09:42.622Z,4.20
2019-04-22T04:11:52.135Z,4.00
2019-04-22T04:13:05.555Z,4.60
2019-04-22T04:13:41.239Z,4.40
2019-04-22T04:14:47.195Z,3.90
2019-04-22T04:15:36.494Z,3.90
2019-04-22T04:16:50.447Z,4.50
2019-04-22T04:17:48.942Z,3.80
2019-04-22T04:18:46.709Z,4.00
2019-04-22T04:19:48.029Z,4.40
2019-04-22T04:21:10.257Z,4.90
2019-04-22T04:21:41.349Z,4.40
2019-04-22T04:23:05.738Z,4.10
2019-04-22T04:27:53.616Z,4.30
2019-04-22T04:30:02.596Z,4.20
2019-04-22T04:31:44.281Z,3.70
2019-04-22T04:32:41.562Z,3.90
2019-04-22T04:33:45.265Z,3.90
2019-04-22T04:36:41.689Z,3.80
2019-04-22T04:37:46.718Z,4.30
2019-04-22T04:38:51.894Z,4.30
2019-04-22T04:39:47.030Z,4.20
2019-04-22T04:40:53.071Z,4.30
2019-04-22T04:41:42.940Z,4.20
2019-04-22T04:42:46.318Z,4.20
2019-04-22T04:43:50.438Z,4.30
2019-04-22T04:46:46.679Z,4.40
2019-04-22T04:48:55.440Z,4.20
2019-04-22T04:49:52.742Z,3.90
2019-04-22T04:50:42.265Z,4.30
2019-04-22T04:51:37.549Z,4.00
2019-04-22T04:52:52.852Z,4.80
2019-04-22T04:53:33.749Z,4.50
2019-04-22T04:54:48.460Z,4.20
2019-04-22T04:58:56.026Z,3.90
2019-04-22T04:59:57.682Z,4.40
2019-04-22T05:00:48.907Z,4.30
2019-04-22T05:04:51.077Z,4.30
2019-04-22T05:05:45.702Z,4.10
2019-04-22T05:06:49.156Z,4.20
2019-04-22T05:07:45.748Z,4.20
2019-04-22T05:09:03.782Z,4.20
2019-04-22T05:11:50.269Z,4.50
2019-04-22T05:14:28.827Z,4.60
2019-04-22T05:17:45.552Z,4.60
2019-04-22T05:18:37.329Z,4.30
2019-04-22T05:19:47.701Z,3.90
2019-04-22T05:20:49.248Z,3.80
2019-04-22T05:21:38.528Z,4.50
2019-04-22T05:22:33.946Z,4.30
2019-04-22T05:23:39.387Z,4.50
2019-04-22T05:25:28.357Z,4.40
2019-04-22T05:26:32.901Z,3.80
2019-04-22T05:27:34.958Z,4.40
2019-04-22T05:28:30.434Z,3.60
2019-04-22T05:29:36.176Z,3.80
2019-04-22T05:30:32.392Z,4.00
2019-04-22T05:31:37.559Z,4.30
2019-04-22T05:33:35.589Z,4.70
2019-04-22T05:34:31.934Z,3.90
2019-04-22T05:35:30.905Z,4.60
2019-04-22T05:36:34.431Z,4.10
2019-04-22T05:37:34.169Z,3.80
2019-04-22T05:38:52.303Z,3.90
2019-04-22T05:39:28.525Z,4.40
2019-04-22T05:40:28.225Z,4.10
2019-04-22T05:41:28.971Z,4.50
2019-04-22T05:42:29.585Z,4.40
2019-04-22T05:43:35.493Z,4.40
2019-04-22T05:44:39.429Z,4.20
2019-04-22T05:45:42.999Z,4.10
2019-04-22T05:46:28.716Z,4.60
2019-04-22T05:47:34.089Z,4.30
2019-04-22T05:48:33.721Z,3.10
2019-04-22T05:49:28.873Z,4.10
2019-04-22T05:50:27.052Z,3.90
2019-04-22T05:51:31.489Z,3.80
2019-04-22T05:52:40.735Z,4.20
2019-04-22T05:53:37.739Z,4.10
2019-04-22T05:54:33.006Z,3.40
2019-04-22T05:55:38.614Z,3.00
2019-04-22T05:56:37.097Z,4.10
2019-04-22T05:57:47.058Z,4.10
2019-04-22T05:58:38.416Z,3.40
2019-04-22T05:59:36.219Z,4.00
2019-04-22T06:01:01.295Z,3.80
2019-04-22T06:01:52.183Z,4.40
2019-04-22T06:02:41.697Z,3.90
2019-04-22T06:03:35.344Z,4.20
2019-04-22T06:04:29.430Z,4.10
2019-04-22T06:05:47.859Z,4.00
2019-04-22T06:06:44.118Z,4.30
2019-04-22T06:07:22.858Z,4.30
2019-04-22T06:08:31.019Z,4.10
2019-04-22T06:09:30.582Z,3.60
2019-04-22T06:10:37.354Z,4.20
2019-04-22T06:11:29.432Z,3.80
2019-04-22T06:12:26.438Z,3.90
2019-04-22T06:13:28.072Z,3.90
2019-04-22T06:14:27.873Z,4.30
2019-04-22T06:15:31.710Z,3.70
2019-04-22T06:16:31.183Z,4.10
2019-04-22T06:17:35.440Z,4.10
2019-04-22T06:18:55.219Z,3.50
2019-04-22T06:19:31.566Z,3.70
2019-04-22T06:20:32.559Z,4.00
2019-04-22T06:21:35.616Z,4.40
2019-04-22T06:22:37.515Z,4.20
2019-04-22T06:23:34.655Z,4.10
2019-04-22T06:24:27.905Z,3.50
2019-04-22T06:26:03.968Z,4.40
2019-04-22T06:26:39.408Z,3.70
2019-04-22T06:27:38.689Z,3.50
2019-04-22T06:29:41.277Z,4.10
2019-04-22T06:30:28.708Z,3.50
2019-04-22T06:31:49.797Z,4.00
2019-04-22T06:33:48.713Z,3.30
2019-04-22T06:36:38.077Z,4.20
2019-04-22T06:37:33.988Z,3.90
2019-04-22T06:40:31.739Z,4.30
2019-04-22T06:41:40.275Z,3.80
2019-04-22T06:42:36.667Z,4.20
2019-04-22T06:43:51.679Z,3.80
2019-04-22T06:44:29.887Z,3.60
2019-04-22T06:45:30.884Z,3.80
2019-04-22T06:46:37.886Z,3.70
2019-04-22T06:47:48.508Z,3.80
2019-04-22T06:48:29.552Z,4.10
2019-04-22T06:49:48.246Z,4.00
2019-04-22T06:50:38.486Z,3.90
2019-04-22T06:51:32.706Z,3.70
2019-04-22T06:52:35.021Z,3.50
2019-04-22T06:53:37.303Z,3.80
2019-04-22T06:54:37.070Z,3.90
2019-04-22T06:55:38.997Z,3.80
2019-04-22T06:56:28.453Z,4.10
2019-04-22T06:57:30.511Z,3.80
2019-04-22T06:58:33.073Z,3.80
2019-04-22T06:59:33.010Z,3.50
2019-04-22T07:00:30.505Z,3.70
2019-04-22T07:01:30.087Z,3.60
2019-04-22T07:02:32.124Z,3.70
2019-04-22T07:04:30.279Z,3.70
2019-04-22T07:05:29.720Z,3.60
2019-04-22T07:06:40.135Z,3.60
2019-04-22T07:07:31.189Z,3.70
2019-04-22T07:09:00.854Z,4.00
2019-04-22T07:09:35.001Z,3.70
2019-04-22T07:11:29.577Z,3.90
2019-04-22T07:12:30.537Z,3.60
2019-04-22T07:14:28.260Z,3.70
2019-04-22T07:15:46.767Z,3.50
2019-04-22T07:16:32.392Z,4.00
2019-04-22T07:17:39.290Z,3.70
2019-04-22T07:18:35.962Z,3.10
2019-04-22T07:19:36.150Z,3.50
2019-04-22T07:20:30.518Z,3.20
2019-04-22T07:21:33.387Z,3.40
2019-04-22T07:22:33.823Z,3.60
2019-04-22T07:23:37.353Z,3.70
2019-04-22T07:24:40.664Z,3.60
2019-04-22T07:25:30.973Z,3.90
2019-04-22T07:26:24.169Z,4.10
2019-04-22T07:27:27.864Z,3.60
2019-04-22T07:28:24.510Z,3.50
2019-04-22T07:29:33.804Z,3.70
2019-04-22T07:31:28.949Z,3.70
2019-04-22T07:32:53.617Z,4.10
2019-04-22T07:33:34.355Z,3.00
2019-04-22T07:34:48.244Z,3.90
2019-04-22T07:35:37.177Z,3.90
2019-04-22T07:37:41.832Z,4.20
2019-04-22T07:38:26.708Z,3.80
2019-04-22T07:39:32.130Z,4.10
2019-04-22T07:40:34.099Z,3.60
2019-04-22T07:41:31.766Z,3.80
2019-04-22T07:42:31.082Z,3.40
2019-04-22T07:43:40.835Z,3.90
2019-04-22T07:44:31.192Z,3.50
2019-04-22T07:45:29.313Z,3.60
2019-04-22T07:46:36.977Z,4.00
2019-04-22T07:47:35.934Z,3.90
2019-04-22T07:48:44.879Z,3.20
2019-04-22T07:49:39.224Z,3.40
2019-04-22T07:50:46.213Z,3.80
2019-04-22T07:51:32.632Z,3.20
2019-04-22T07:52:27.852Z,3.40
2019-04-22T07:53:25.928Z,3.80
2019-04-22T07:54:39.719Z,3.50
2019-04-22T07:55:29.349Z,4.30
2019-04-22T07:56:29.246Z,3.80
2019-04-22T07:57:44.477Z,3.80
2019-04-22T07:58:29.384Z,3.80
2019-04-22T07:59:30.654Z,3.60
2019-04-22T08:00:29.736Z,3.60
2019-04-22T08:01:50.902Z,4.00
2019-04-22T08:02:32.788Z,3.80
2019-04-22T08:03:37.487Z,3.60
2019-04-22T08:04:49.155Z,3.50
2019-04-22T08:05:33.082Z,3.80
2019-04-22T08:06:29.286Z,3.60
2019-04-22T08:07:30.161Z,3.60
2019-04-22T08:08:33.406Z,3.70
2019-04-22T08:09:35.614Z,4.10
2019-04-22T08:12:36.237Z,4.10
2019-04-22T08:13:30.790Z,3.60
2019-04-22T08:14:36.240Z,3.40
2019-04-22T08:15:37.325Z,3.90
2019-04-22T08:16:33.873Z,3.40
2019-04-22T08:17:53.296Z,3.30
2019-04-22T08:20:28.743Z,3.70
2019-04-22T08:21:29.997Z,4.10
2019-04-22T08:22:25.976Z,3.70
2019-04-22T08:23:33.192Z,3.80
2019-04-22T08:24:38.788Z,3.70
2019-04-22T08:25:36.734Z,3.30
2019-04-22T08:26:36.321Z,3.60
2019-04-22T08:27:30.411Z,3.50
2019-04-22T08:28:31.946Z,3.80
2019-04-22T08:29:37.611Z,3.80
2019-04-22T08:30:37.975Z,3.40
2019-04-22T08:31:35.955Z,3.70
2019-04-22T08:32:37.929Z,3.60
2019-04-22T08:33:49.659Z,3.90
2019-04-22T08:34:29.847Z,3.40
2019-04-22T08:35:40.529Z,3.70
2019-04-22T08:36:31.513Z,3.40
2019-04-22T08:38:39.537Z,3.30
2019-04-22T08:39:40.697Z,3.30
2019-04-22T08:40:37.819Z,3.50
2019-04-22T08:41:43.820Z,3.60
2019-04-22T08:43:36.375Z,3.40
2019-04-22T08:44:52.212Z,3.60
2019-04-22T08:45:32.071Z,3.60
2019-04-22T08:46:35.214Z,3.30
2019-04-22T08:47:31.039Z,3.30
2019-04-22T08:48:32.951Z,3.60
2019-04-22T08:49:37.493Z,3.20
2019-04-22T08:50:29.529Z,3.30
2019-04-22T08:52:31.861Z,3.20
2019-04-22T08:53:35.877Z,2.80
2019-04-22T08:54:33.971Z,3.40
2019-04-22T08:55:32.792Z,3.70
2019-04-22T08:56:33.784Z,3.00
2019-04-22T08:57:42.200Z,3.10
2019-04-22T08:58:27.626Z,2.50
2019-04-22T08:59:48.682Z,3.50
2019-04-22T09:00:34.418Z,3.10
2019-04-22T09:01:27.027Z,3.10
2019-04-22T09:02:32.784Z,3.20
2019-04-22T09:03:30.512Z,3.00
2019-04-22T09:04:23.274Z,3.30
2019-04-22T09:05:43.525Z,3.00
2019-04-22T09:06:39.906Z,3.80
2019-04-22T09:07:31.842Z,3.00
2019-04-22T09:08:38.050Z,2.90
2019-04-22T09:09:31.391Z,3.10
2019-04-22T09:10:35.081Z,3.30
2019-04-22T09:11:37.365Z,3.00
2019-04-22T09:13:33.454Z,3.30
2019-04-22T09:14:31.319Z,3.30
2019-04-22T09:15:31.095Z,3.30
2019-04-22T09:16:33.172Z,2.80
2019-04-22T09:17:28.620Z,3.10
2019-04-22T09:19:30.680Z,3.00
2019-04-22T09:20:32.645Z,3.30
2019-04-22T09:21:34.373Z,3.00
2019-04-22T09:22:26.630Z,3.20
2019-04-22T09:23:30.299Z,3.00
2019-04-22T09:24:29.914Z,2.70
2019-04-22T09:25:29.678Z,3.00
2019-04-22T09:27:32.960Z,3.50
2019-04-22T09:28:33.193Z,2.90
2019-04-22T09:29:38.607Z,3.20
2019-04-22T09:30:34.754Z,2.90
2019-04-22T09:31:28.965Z,3.10
2019-04-22T09:32:36.380Z,3.20
2019-04-22T09:33:27.234Z,3.20
2019-04-22T09:34:38.259Z,2.90
2019-04-22T09:35:31.808Z,3.20
2019-04-22T09:37:38.019Z,3.10
2019-04-22T09:38:38.351Z,3.10
2019-04-22T09:39:41.049Z,3.20
2019-04-22T09:40:28.904Z,3.50
2019-04-22T09:41:31.867Z,3.10
2019-04-22T09:42:32.268Z,3.60
2019-04-22T09:43:32.025Z,3.00
2019-04-22T09:44:31.104Z,3.10
2019-04-22T09:45:28.682Z,3.50
2019-04-22T09:46:39.162Z,3.70
2019-04-22T09:47:33.683Z,3.50
2019-04-22T09:49:39.177Z,3.40
2019-04-22T09:51:30.820Z,3.10
2019-04-22T09:52:29.440Z,2.70
2019-04-22T09:53:34.094Z,3.00
2019-04-22T09:54:45.113Z,3.10
2019-04-22T09:55:29.844Z,3.10
2019-04-22T09:56:31.789Z,3.20
2019-04-22T09:57:50.947Z,2.90
2019-04-22T09:58:32.088Z,2.70
2019-04-22T09:59:27.178Z,2.80
2019-04-22T10:00:36.276Z,2.70
2019-04-22T10:01:47.358Z,2.90
2019-04-22T10:02:47.382Z,2.70
2019-04-22T10:03:27.148Z,2.90
2019-04-22T10:04:34.983Z,2.80
2019-04-22T10:06:40.566Z,3.10
2019-04-22T10:08:33.784Z,2.90
2019-04-22T10:10:30.357Z,2.90
2019-04-22T10:11:34.611Z,2.80
2019-04-22T10:12:33.822Z,2.30
2019-04-22T10:13:34.625Z,2.60
2019-04-22T10:14:31.021Z,2.60
2019-04-22T10:15:28.114Z,2.50
2019-04-22T10:16:35.717Z,2.90
2019-04-22T10:18:32.436Z,2.80
2019-04-22T10:19:29.741Z,2.80
2019-04-22T10:20:33.892Z,2.60
2019-04-22T10:21:35.801Z,2.60
2019-04-22T10:22:32.473Z,3.10
2019-04-22T10:23:31.631Z,2.80
2019-04-22T10:24:27.851Z,2.80
2019-04-22T10:25:32.983Z,2.50
2019-04-22T10:26:33.476Z,2.60
2019-04-22T10:27:29.263Z,2.60
2019-04-22T10:28:32.266Z,2.80
2019-04-22T10:29:36.532Z,3.00
2019-04-22T10:30:38.336Z,2.50
2019-04-22T10:31:39.563Z,2.80
2019-04-22T10:32:29.116Z,3.10
2019-04-22T10:33:22.455Z,2.80
2019-04-22T10:34:16.753Z,2.40
2019-04-22T10:35:09.293Z,2.80
2019-04-22T10:36:05.682Z,2.80
2019-04-22T10:37:10.887Z,3.00
2019-04-22T10:38:04.066Z,3.00
2019-04-22T10:39:04.258Z,2.80
2019-04-22T10:40:07.470Z,2.60
2019-04-22T10:41:04.873Z,2.70
2019-04-22T10:42:04.998Z,2.90
2019-04-22T10:43:05.203Z,3.20
2019-04-22T10:44:05.328Z,2.50
2019-04-22T10:45:03.943Z,3.10
2019-04-22T10:46:04.210Z,2.90
2019-04-22T10:47:04.259Z,2.80
2019-04-22T10:48:04.111Z,2.90
2019-04-22T10:49:04.253Z,3.00
2019-04-22T10:50:04.613Z,2.80
2019-04-22T10:51:04.547Z,2.70
2019-04-22T10:52:04.612Z,2.80
2019-04-22T10:53:03.908Z,2.90
2019-04-22T10:54:05.142Z,3.20
2019-04-22T10:55:05.353Z,2.70
2019-04-22T10:56:05.207Z,3.30
2019-04-22T10:57:03.895Z,2.80
2019-04-22T10:58:04.382Z,3.00
2019-04-22T10:59:04.807Z,3.20
2019-04-22T11:00:04.971Z,2.50
2019-04-22T11:01:05.218Z,3.00
2019-04-22T11:02:03.872Z,3.20
2019-04-22T11:03:04.223Z,2.90
2019-04-22T11:04:03.869Z,2.60
2019-04-22T11:05:04.091Z,3.20
2019-04-22T11:06:05.235Z,2.80
2019-04-22T11:07:07.617Z,2.90
2019-04-22T11:08:07.964Z,3.00
2019-04-22T11:09:05.287Z,3.10
2019-04-22T11:10:21.773Z,2.80
2019-04-22T11:11:16.090Z,3.20
2019-04-22T11:12:11.194Z,2.90
2019-04-22T11:13:05.049Z,2.80
2019-04-22T11:14:04.453Z,3.20
2019-04-22T11:15:03.816Z,3.00
2019-04-22T11:16:03.812Z,2.90
2019-04-22T11:17:05.614Z,2.70
2019-04-22T11:18:05.207Z,2.70
2019-04-22T11:19:03.800Z,2.90
2019-04-22T11:20:03.864Z,3.00
2019-04-22T11:21:05.309Z,3.00
2019-04-22T11:22:14.273Z,2.30
2019-04-22T11:23:04.721Z,2.60
2019-04-22T11:24:04.917Z,2.80
2019-04-22T11:25:03.784Z,2.80
2019-04-22T11:26:03.959Z,2.80
2019-04-22T11:27:05.205Z,2.80
2019-04-22T11:28:05.390Z,2.90
2019-04-22T11:29:03.769Z,2.90
2019-04-22T11:30:03.945Z,3.20
2019-04-22T11:31:03.758Z,2.80
2019-04-22T11:32:04.297Z,3.10
2019-04-22T11:33:04.565Z,2.90
2019-04-22T11:34:03.751Z,2.90
2019-04-22T11:35:03.820Z,2.40
2019-04-22T11:36:03.873Z,2.70
2019-04-22T11:37:05.144Z,3.10
2019-04-22T11:38:04.592Z,2.80
2019-04-22T11:39:06.062Z,2.70
2019-04-22T11:40:11.369Z,2.90
2019-04-22T11:41:05.317Z,2.70
2019-04-22T11:42:04.455Z,3.00
2019-04-22T11:43:04.053Z,2.90
2019-04-22T11:44:05.287Z,3.10
2019-04-22T11:45:03.715Z,3.00
2019-04-22T11:46:05.099Z,3.30
2019-04-22T11:47:03.718Z,3.30
2019-04-22T11:48:03.712Z,3.10
2019-04-22T11:49:03.828Z,3.10
2019-04-22T11:50:03.798Z,2.80
2019-04-22T11:51:04.368Z,2.70
2019-04-22T11:52:06.563Z,2.80
2019-04-22T11:53:04.789Z,2.90
2019-04-22T11:54:05.023Z,3.20
2019-04-22T11:55:04.437Z,2.80
2019-04-22T11:56:04.725Z,3.10
2019-04-22T11:57:05.308Z,2.90
2019-04-22T11:58:03.678Z,2.90
2019-04-22T11:59:04.798Z,3.00
2019-04-22T12:00:04.981Z,3.10
2019-04-22T12:01:03.670Z,3.20
2019-04-22T12:02:04.689Z,2.90
2019-04-22T12:03:05.064Z,2.80
2019-04-22T12:04:04.080Z,2.90
2019-04-22T12:05:03.856Z,2.80
2019-04-22T12:06:04.050Z,2.90
2019-04-22T12:07:04.272Z,3.10
2019-04-22T12:08:05.013Z,3.30
2019-04-22T12:09:03.913Z,3.00
2019-04-22T12:10:22.356Z,3.40
2019-04-22T12:11:05.849Z,3.30
2019-04-22T12:12:03.646Z,3.50
2019-04-22T12:13:03.939Z,3.20
2019-04-22T12:14:04.192Z,3.30
2019-04-22T12:15:04.178Z,3.70
2019-04-22T12:16:03.624Z,3.30
2019-04-22T12:17:03.669Z,3.70
2019-04-22T12:18:03.769Z,3.30
2019-04-22T12:19:04.931Z,3.30
2019-04-22T12:20:06.623Z,3.40
2019-04-22T12:21:03.668Z,3.20
2019-04-22T12:22:04.881Z,3.20
2019-04-22T12:23:05.000Z,3.40
2019-04-22T12:24:03.602Z,3.20
2019-04-22T12:25:04.147Z,3.50
2019-04-22T12:26:09.228Z,3.10
2019-04-22T12:27:04.320Z,3.50
2019-04-22T12:28:03.588Z,3.50
2019-04-22T12:29:04.772Z,2.80
2019-04-22T12:30:04.898Z,2.80
2019-04-22T12:31:03.859Z,2.90
2019-04-22T12:32:03.585Z,2.80
2019-04-22T12:33:04.658Z,2.90
2019-04-22T12:34:03.762Z,3.20
2019-04-22T12:35:05.176Z,3.20
2019-04-22T12:36:04.632Z,3.10
2019-04-22T12:37:04.621Z,2.70
2019-04-22T12:38:08.193Z,3.30
2019-04-22T12:39:03.562Z,2.90
2019-04-22T12:40:04.276Z,3.00
2019-04-22T12:41:06.817Z,2.70
2019-04-22T12:42:04.364Z,2.70
2019-04-22T12:43:04.726Z,2.80
2019-04-22T12:44:03.549Z,2.70
2019-04-22T12:45:04.289Z,3.30
2019-04-22T12:46:03.543Z,3.00
2019-04-22T12:47:05.430Z,2.50
2019-04-22T12:48:04.272Z,3.20
2019-04-22T12:49:04.496Z,2.70
2019-04-22T12:50:12.257Z,3.10
2019-04-22T12:51:04.931Z,2.80
2019-04-22T12:52:03.523Z,3.00
2019-04-22T12:53:08.606Z,2.90
2019-04-22T12:54:03.597Z,3.20
2019-04-22T12:55:03.883Z,3.00
2019-04-22T12:56:04.867Z,3.10
2019-04-22T12:57:03.994Z,3.00
2019-04-22T12:58:03.504Z,3.00
2019-04-22T12:59:03.884Z,3.30
2019-04-22T13:00:03.757Z,2.90
2019-04-22T13:01:03.500Z,2.70
2019-04-22T13:02:04.888Z,2.80
2019-04-22T13:03:03.488Z,3.20
2019-04-22T13:04:07.820Z,2.90
2019-04-22T13:05:03.970Z,2.90
2019-04-22T13:06:03.809Z,3.00
2019-04-22T13:07:03.911Z,2.90
2019-04-22T13:08:03.489Z,3.00
2019-04-22T13:09:04.216Z,3.00
2019-04-22T13:10:04.085Z,2.80
2019-04-22T13:11:10.374Z,2.50
2019-04-22T13:12:03.479Z,2.60
2019-04-22T13:13:04.894Z,3.00
2019-04-22T13:14:04.949Z,2.90
2019-04-22T13:15:05.970Z,2.90
2019-04-22T13:16:04.728Z,3.30
2019-04-22T13:17:04.043Z,3.00
2019-04-22T13:18:14.992Z,2.90
2019-04-22T13:19:07.390Z,3.00
2019-04-22T13:20:03.445Z,2.60
2019-04-22T13:21:04.572Z,3.00
2019-04-22T13:22:04.926Z,2.60
2019-04-22T13:23:04.023Z,2.70
2019-04-22T13:24:04.708Z,3.30
2019-04-22T13:25:04.031Z,2.60
2019-04-22T13:26:03.427Z,2.60
2019-04-22T13:27:03.424Z,3.00
2019-04-22T13:28:04.902Z,3.00
2019-04-22T13:29:03.420Z,2.70
2019-04-22T13:30:06.148Z,2.50
2019-04-22T13:31:03.760Z,2.90
2019-04-22T13:32:04.724Z,2.80
2019-04-22T13:33:04.987Z,2.80
2019-04-22T13:34:04.078Z,2.90
2019-04-22T13:35:03.991Z,2.50
2019-04-22T13:36:03.781Z,3.20
2019-04-22T13:37:03.395Z,2.80
2019-04-22T13:38:04.830Z,2.80
2019-04-22T13:39:04.783Z,2.80
2019-04-22T13:40:03.616Z,2.80
2019-04-22T13:41:16.387Z,3.00
2019-04-22T13:42:06.001Z,2.90
2019-04-22T13:43:04.612Z,2.50
2019-04-22T13:44:03.640Z,2.70
2019-04-22T13:45:04.125Z,3.00
2019-04-22T13:46:03.881Z,2.70
2019-04-22T13:47:19.707Z,3.20
2019-04-22T13:48:28.127Z,2.70
2019-04-22T13:49:37.785Z,3.10
2019-04-22T13:50:47.621Z,2.80
2019-04-22T13:51:36.336Z,2.70
2019-04-22T13:52:45.110Z,2.70
2019-04-22T13:54:48.690Z,2.50
2019-04-22T13:55:34.644Z,2.80
2019-04-22T13:56:28.379Z,2.90
2019-04-22T13:57:18.685Z,3.20
2019-04-22T13:58:15.708Z,2.20
2019-04-22T13:59:17.324Z,2.60
2019-04-22T14:00:05.698Z,2.90
2019-04-22T14:01:04.854Z,2.30
2019-04-22T14:02:04.435Z,2.60
2019-04-22T14:03:04.629Z,2.50
2019-04-22T14:04:04.811Z,2.70
2019-04-22T14:05:04.321Z,2.80
2019-04-22T14:06:04.747Z,2.70
2019-04-22T14:07:03.698Z,2.70
2019-04-22T14:08:04.872Z,3.00
2019-04-22T14:09:03.303Z,3.00
2019-04-22T14:10:04.406Z,2.80
2019-04-22T14:11:13.942Z,2.70
2019-04-22T14:12:05.792Z,2.50
2019-04-22T14:13:03.860Z,2.80
2019-04-22T14:14:03.287Z,2.40
2019-04-22T14:15:04.268Z,2.60
2019-04-22T14:16:04.573Z,2.60
2019-04-22T14:17:03.281Z,2.50
2019-04-22T14:18:03.278Z,2.50
2019-04-22T14:19:03.277Z,2.30
2019-04-22T14:20:04.686Z,2.30
2019-04-22T14:21:03.272Z,2.70
2019-04-22T14:22:04.007Z,2.60
2019-04-22T14:23:05.991Z,2.20
2019-04-22T14:24:04.845Z,2.80
2019-04-22T14:25:04.870Z,2.90
2019-04-22T14:26:03.253Z,2.80
2019-04-22T14:27:17.525Z,2.50
2019-04-22T14:28:09.204Z,2.60
2019-04-22T14:29:04.152Z,2.50
2019-04-22T14:30:03.243Z,2.70
2019-04-22T14:31:04.380Z,2.60
2019-04-22T14:32:11.449Z,3.00
2019-04-22T14:33:04.993Z,2.80
2019-04-22T14:34:05.242Z,2.70
2019-04-22T14:35:03.243Z,2.60
2019-04-22T14:36:04.665Z,2.70
2019-04-22T14:37:03.559Z,2.70
2019-04-22T14:38:04.196Z,2.50
2019-04-22T14:39:03.955Z,2.40
2019-04-22T14:40:08.811Z,2.60
2019-04-22T14:41:03.215Z,2.30
2019-04-22T14:42:21.702Z,2.50
2019-04-22T14:43:25.270Z,2.50
2019-04-22T14:45:04.942Z,2.80
2019-04-22T14:45:29.819Z,2.90
2019-04-22T14:46:29.548Z,2.80
2019-04-22T14:47:27.842Z,2.50
2019-04-22T14:48:27.851Z,2.50
2019-04-22T14:49:28.610Z,2.40
2019-04-22T14:50:22.202Z,2.70
2019-04-22T14:51:22.350Z,2.50
2019-04-22T14:52:27.654Z,2.60
2019-04-22T14:53:21.728Z,2.60
2019-04-22T14:54:19.450Z,2.40